Time;durP1;ratioP1;P1;durP2;ratioP2;P2;SDS_P1;SDS_P2;PMS_P1;PMS_P2;Temp;Humidity;BMP_temperature;BMP_pressure;BME280_temperature;BME280_humidity;BME280_pressure;Samples;Min_cycle;Max_cycle;Signal;HPM_P1;HPM_P2
2022/04/03 00:01:37;;;;;;;2.10;1.25;;;2.10;61.30;;;;;;5056116;28;20033;-48
2022/04/03 00:04:02;;;;;;;1.40;0.90;;;2.20;61.40;;;;;;5055967;28;20021;-47
2022/04/03 00:06:28;;;;;;;2.97;1.20;;;2.20;61.50;;;;;;5055931;28;20087;-47
2022/04/03 00:08:55;;;;;;;1.55;0.98;;;2.20;61.40;;;;;;5056083;28;20053;-47
2022/04/03 00:11:21;;;;;;;2.17;1.10;;;2.10;61.50;;;;;;5055893;28;20104;-48
2022/04/03 00:13:48;;;;;;;3.72;1.13;;;2.10;61.50;;;;;;5055845;28;20056;-46
2022/04/03 00:16:14;;;;;;;1.20;1.08;;;2.10;61.60;;;;;;5055886;28;20393;-47
2022/04/03 00:18:40;;;;;;;2.47;1.10;;;2.00;61.60;;;;;;5055628;28;20029;-40
2022/04/03 00:21:05;;;;;;;2.15;1.13;;;2.10;61.70;;;;;;5055666;28;20036;-43
2022/04/03 00:23:31;;;;;;;2.97;1.15;;;2.00;61.70;;;;;;5055414;28;20462;-39
2022/04/03 00:25:56;;;;;;;2.03;1.17;;;2.00;61.70;;;;;;5055453;28;20021;-40
2022/04/03 00:28:22;;;;;;;1.27;1.05;;;2.00;61.70;;;;;;5055473;28;20094;-38
2022/04/03 00:30:49;;;;;;;2.35;1.02;;;2.00;61.70;;;;;;5055344;28;20025;-38
2022/04/03 00:33:14;;;;;;;1.52;0.93;;;2.10;61.70;;;;;;5055361;28;20111;-37
2022/04/03 00:35:40;;;;;;;1.00;0.90;;;2.10;61.60;;;;;;5055210;28;20109;-37
2022/04/03 00:38:07;;;;;;;1.77;1.00;;;2.10;61.50;;;;;;5055252;28;20028;-39
2022/04/03 00:40:33;;;;;;;2.10;1.20;;;2.10;61.50;;;;;;5055380;28;20048;-40
2022/04/03 00:42:59;;;;;;;1.60;1.00;;;2.10;61.40;;;;;;5055080;28;20112;-40
2022/04/03 00:45:24;;;;;;;1.33;0.73;;;2.10;61.40;;;;;;5055129;28;20485;-39
2022/04/03 00:47:54;;;;;;;2.50;0.95;;;2.10;61.50;;;;;;5055121;28;20036;-40
2022/04/03 00:50:21;;;;;;;2.67;1.40;;;2.00;61.50;;;;;;5055061;28;20108;-40
2022/04/03 00:52:47;;;;;;;1.65;1.27;;;2.00;61.70;;;;;;5055024;28;20029;-40
2022/04/03 00:55:13;;;;;;;1.55;1.15;;;1.90;62.40;;;;;;5054978;28;20113;-40
2022/04/03 00:57:40;;;;;;;4.80;1.30;;;1.90;62.10;;;;;;5054382;28;20032;-40
2022/04/03 01:00:07;;;;;;;2.47;1.10;;;1.80;62.20;;;;;;5054763;28;20232;-40
2022/04/03 01:02:32;;;;;;;1.85;1.15;;;1.70;62.40;;;;;;5054695;28;20040;-40
2022/04/03 01:04:58;;;;;;;3.10;1.13;;;1.60;62.50;;;;;;5054723;28;20017;-40
2022/04/03 01:07:24;;;;;;;2.22;1.15;;;1.60;62.80;;;;;;5054669;28;20029;-40
2022/04/03 01:09:49;;;;;;;1.70;1.30;;;1.50;62.90;;;;;;5054585;28;20021;-39
2022/04/03 01:12:15;;;;;;;2.25;1.33;;;1.50;63.00;;;;;;5054627;28;20038;-39
2022/04/03 01:14:43;;;;;;;1.95;1.30;;;1.50;63.10;;;;;;5054619;28;20039;-39
2022/04/03 01:17:11;;;;;;;2.38;1.20;;;1.40;63.20;;;;;;5053259;28;20025;-39
2022/04/03 01:19:38;;;;;;;3.20;1.35;;;1.40;63.20;;;;;;5054719;28;20434;-38
2022/04/03 01:22:03;;;;;;;1.70;1.20;;;1.40;63.30;;;;;;5053023;28;20033;-39
2022/04/03 01:24:30;;;;;;;2.70;1.48;;;1.40;63.40;;;;;;5053052;28;20579;-39
2022/04/03 01:26:56;;;;;;;4.55;1.70;;;1.40;63.50;;;;;;5053233;28;20570;-40
2022/04/03 01:29:23;;;;;;;2.75;1.65;;;1.30;63.60;;;;;;5054559;28;20071;-40
2022/04/03 01:31:50;;;;;;;3.63;1.58;;;1.30;63.80;;;;;;5054104;28;20107;-39
2022/04/03 01:34:17;;;;;;;1.45;1.23;;;1.20;63.80;;;;;;5052873;28;20538;-40
2022/04/03 01:36:43;;;;;;;2.92;1.20;;;1.20;64.00;;;;;;5054040;28;20021;-39
2022/04/03 01:39:10;;;;;;;2.58;1.30;;;1.10;63.90;;;;;;5052837;28;20549;-39
2022/04/03 01:41:37;;;;;;;2.92;1.13;;;1.10;64.10;;;;;;5053929;28;20028;-37
2022/04/03 01:44:04;;;;;;;3.05;1.58;;;1.10;64.20;;;;;;5054067;28;20024;-39
2022/04/03 01:46:30;;;;;;;2.28;1.60;;;1.00;64.40;;;;;;5053926;28;20116;-39
2022/04/03 01:48:55;;;;;;;1.70;1.17;;;1.00;64.50;;;;;;5053877;28;20032;-39
2022/04/03 01:51:21;;;;;;;1.52;1.10;;;0.90;64.60;;;;;;5053872;28;20025;-40
2022/04/03 01:53:47;;;;;;;2.63;1.15;;;0.90;64.70;;;;;;5053746;28;20159;-39
2022/04/03 01:56:12;;;;;;;4.20;1.40;;;0.90;64.80;;;;;;5054064;28;20029;-39
2022/04/03 01:58:38;;;;;;;1.88;1.38;;;0.90;64.90;;;;;;5053597;28;20132;-39
2022/04/03 02:01:06;;;;;;;2.15;1.50;;;0.80;65.10;;;;;;5053950;28;20025;-39
2022/04/03 02:03:32;;;;;;;1.80;1.13;;;0.80;65.20;;;;;;5053476;28;20025;-39
2022/04/03 02:05:59;;;;;;;3.15;1.75;;;0.80;65.30;;;;;;5053511;28;20128;-40
2022/04/03 02:08:25;;;;;;;2.30;1.30;;;0.80;65.50;;;;;;5052894;28;20064;-39
2022/04/03 02:10:51;;;;;;;2.53;1.40;;;0.80;65.50;;;;;;5053566;28;20509;-41
2022/04/03 02:13:16;;;;;;;2.75;1.63;;;0.80;65.60;;;;;;5035821;28;20125;-39
2022/04/03 02:15:42;;;;;;;2.47;1.48;;;0.80;65.60;;;;;;5053698;28;20025;-39
2022/04/03 02:18:09;;;;;;;2.20;1.65;;;0.80;65.70;;;;;;5053296;28;20083;-40
2022/04/03 02:20:35;;;;;;;3.10;1.60;;;0.90;65.80;;;;;;5053598;28;20094;-41
2022/04/03 02:23:01;;;;;;;2.45;1.65;;;0.90;66.00;;;;;;5051849;28;20040;-40
2022/04/03 02:25:26;;;;;;;2.85;1.58;;;0.90;66.00;;;;;;5053144;28;20090;-36
2022/04/03 02:27:52;;;;;;;4.18;1.70;;;0.90;66.10;;;;;;5053119;28;20033;-37
2022/04/03 02:30:18;;;;;;;5.20;1.70;;;0.90;66.30;;;;;;5051899;28;20028;-38
2022/04/03 02:32:44;;;;;;;7.53;1.73;;;1.00;66.90;;;;;;5052992;28;20036;-37
2022/04/03 02:35:11;;;;;;;2.20;1.40;;;1.00;66.90;;;;;;5051704;28;20029;-37
2022/04/03 02:37:38;;;;;;;3.65;1.80;;;1.00;66.80;;;;;;5052880;28;20548;-38
2022/04/03 02:40:06;;;;;;;4.38;1.90;;;1.00;67.00;;;;;;5053111;28;20093;-38
2022/04/03 02:42:32;;;;;;;2.28;1.60;;;1.00;67.20;;;;;;5051499;28;20473;-37
2022/04/03 02:44:59;;;;;;;4.03;1.70;;;1.00;67.30;;;;;;5052878;28;20021;-38
2022/04/03 02:47:24;;;;;;;3.92;1.60;;;1.00;67.40;;;;;;5051551;28;20484;-37
2022/04/03 02:49:51;;;;;;;5.55;1.85;;;1.00;67.60;;;;;;5052704;28;20017;-40
2022/04/03 02:52:17;;;;;;;3.45;1.92;;;1.10;67.80;;;;;;5052860;28;20029;-38
2022/04/03 02:54:45;;;;;;;3.00;1.80;;;1.10;67.90;;;;;;5052743;28;20504;-38
2022/04/03 02:57:11;;;;;;;3.35;1.45;;;1.10;68.00;;;;;;5052968;28;20573;-38
2022/04/03 02:59:37;;;;;;;2.13;1.38;;;1.10;68.00;;;;;;5052649;28;20481;-38
2022/04/03 03:02:02;;;;;;;3.05;1.50;;;1.20;68.00;;;;;;5052610;28;20040;-37
2022/04/03 03:04:28;;;;;;;6.85;1.98;;;1.20;68.10;;;;;;5052759;28;20091;-37
2022/04/03 03:06:54;;;;;;;3.50;1.83;;;1.20;68.20;;;;;;5052724;28;20466;-37
2022/04/03 03:09:19;;;;;;;3.50;1.40;;;1.30;68.40;;;;;;5052554;28;20100;-38
2022/04/03 03:11:45;;;;;;;2.25;1.50;;;1.30;68.60;;;;;;5052508;28;20055;-43
2022/04/03 03:14:11;;;;;;;3.13;1.52;;;1.30;68.40;;;;;;5052486;28;20086;-37
2022/04/03 03:16:36;;;;;;;3.58;1.58;;;1.30;68.40;;;;;;5052534;28;20056;-37
2022/04/03 03:19:02;;;;;;;2.80;1.55;;;1.30;68.50;;;;;;5052447;28;20063;-37
2022/04/03 03:21:28;;;;;;;3.47;1.60;;;1.40;68.50;;;;;;5055563;28;20044;-37
2022/04/03 03:23:54;;;;;;;4.43;1.55;;;1.40;68.50;;;;;;5056610;28;20071;-37
2022/04/03 03:26:20;;;;;;;3.00;2.08;;;1.50;68.90;;;;;;5056769;28;20025;-38
2022/04/03 03:28:46;;;;;;;1.77;1.52;;;1.50;68.70;;;;;;5056643;28;20495;-38
2022/04/03 03:31:11;;;;;;;3.28;1.92;;;1.50;69.00;;;;;;5056481;28;20098;-38
2022/04/03 03:33:37;;;;;;;3.63;1.90;;;1.50;69.00;;;;;;5056331;28;20488;-37
2022/04/03 03:36:03;;;;;;;4.47;1.70;;;1.50;68.90;;;;;;5055094;28;20025;-39
2022/04/03 03:38:29;;;;;;;2.72;1.92;;;1.50;68.90;;;;;;5056293;28;20061;-37
2022/04/03 03:40:55;;;;;;;3.30;1.52;;;1.50;69.00;;;;;;5056507;28;20389;-39
2022/04/03 03:43:21;;;;;;;2.65;1.48;;;1.50;69.00;;;;;;5054952;28;20025;-38
2022/04/03 03:45:46;;;;;;;1.77;1.60;;;1.50;69.10;;;;;;5056356;28;20036;-38
2022/04/03 03:48:12;;;;;;;1.92;1.40;;;1.50;69.00;;;;;;5056143;28;20473;-37
2022/04/03 03:50:38;;;;;;;3.47;1.42;;;1.50;69.00;;;;;;5056324;28;20556;-37
2022/04/03 03:53:04;;;;;;;1.92;1.60;;;1.50;68.90;;;;;;5056320;28;20035;-39
2022/04/03 03:55:30;;;;;;;2.65;1.40;;;1.60;68.90;;;;;;5055998;28;20031;-37
2022/04/03 03:57:56;;;;;;;5.35;1.70;;;1.60;68.80;;;;;;5056013;28;20443;-38
2022/04/03 04:00:21;;;;;;;2.33;1.52;;;1.70;68.80;;;;;;5055767;28;20166;-38
2022/04/03 04:02:47;;;;;;;2.08;1.50;;;1.70;68.80;;;;;;5055709;28;20090;-38
2022/04/03 04:05:12;;;;;;;2.22;1.38;;;1.70;69.00;;;;;;5056067;28;20022;-38
2022/04/03 04:07:45;;;;;;;2.40;1.38;;;1.80;68.90;;;;;;5055686;28;20388;-38
2022/04/03 04:10:16;;;;;;;4.18;1.50;;;1.80;68.80;;;;;;5056031;28;20025;-38
2022/04/03 04:12:44;;;;;;;2.00;1.52;;;1.80;69.00;;;;;;5055672;28;20028;-37
2022/04/03 04:15:11;;;;;;;2.20;1.38;;;1.80;68.80;;;;;;5055676;28;20029;-37
2022/04/03 04:17:38;;;;;;;2.33;1.55;;;1.90;68.70;;;;;;5055664;28;20140;-37
2022/04/03 04:20:12;;;;;;;2.95;1.40;;;1.90;68.70;;;;;;5055603;28;20061;-38
2022/04/03 04:22:41;;;;;;;3.00;1.20;;;1.90;68.80;;;;;;5055395;28;20024;-38
2022/04/03 04:25:08;;;;;;;1.95;1.20;;;2.00;68.70;;;;;;5055409;28;20083;-38
2022/04/03 04:27:34;;;;;;;1.40;1.25;;;2.00;68.60;;;;;;5055621;28;20431;-37
2022/04/03 04:29:59;;;;;;;1.48;1.33;;;2.10;68.50;;;;;;5055319;28;20025;-37
2022/04/03 04:32:26;;;;;;;2.78;1.30;;;2.10;68.40;;;;;;5054300;28;20028;-38
2022/04/03 04:34:51;;;;;;;3.83;1.70;;;2.10;68.30;;;;;;5055210;28;20021;-38
2022/04/03 04:37:17;;;;;;;3.13;1.25;;;2.20;68.30;;;;;;5055181;28;20115;-38
2022/04/03 04:39:44;;;;;;;2.05;1.35;;;2.20;68.20;;;;;;5055178;28;20037;-38
2022/04/03 04:42:09;;;;;;;2.58;1.70;;;2.30;68.10;;;;;;5055138;28;20068;-37
2022/04/03 04:44:35;;;;;;;1.30;1.02;;;2.30;68.10;;;;;;5055078;28;20067;-37
2022/04/03 04:47:01;;;;;;;2.97;1.42;;;2.30;68.10;;;;;;5055184;28;20036;-38
2022/04/03 04:49:27;;;;;;;2.08;1.10;;;2.30;68.00;;;;;;5054873;28;20025;-36
2022/04/03 04:51:53;;;;;;;2.78;1.27;;;2.30;68.00;;;;;;5055008;28;20086;-38
2022/04/03 04:54:18;;;;;;;1.88;1.27;;;2.30;68.00;;;;;;5054881;28;20044;-38
2022/04/03 04:56:44;;;;;;;2.20;1.48;;;2.40;68.00;;;;;;5054885;28;20052;-37
2022/04/03 04:59:10;;;;;;;2.78;1.40;;;2.40;67.90;;;;;;5054662;28;20498;-38
2022/04/03 05:01:36;;;;;;;3.63;1.58;;;2.50;67.90;;;;;;5054906;28;20427;-38
2022/04/03 05:04:02;;;;;;;2.90;1.50;;;2.50;67.80;;;;;;5054689;28;20120;-38
2022/04/03 05:06:28;;;;;;;4.13;1.70;;;2.50;67.70;;;;;;5054588;28;20357;-37
2022/04/03 05:08:54;;;;;;;2.65;1.20;;;2.50;67.60;;;;;;5054619;28;20032;-38
2022/04/03 05:11:22;;;;;;;1.70;1.30;;;2.60;67.50;;;;;;5054547;28;20064;-38
2022/04/03 05:13:47;;;;;;;1.65;1.13;;;2.50;67.30;;;;;;5054534;28;20477;-38
2022/04/03 05:16:13;;;;;;;2.63;1.05;;;2.60;67.30;;;;;;5054491;28;20017;-38
2022/04/03 05:18:39;;;;;;;2.50;1.30;;;2.60;67.10;;;;;;5054328;28;20028;-38
2022/04/03 05:21:07;;;;;;;3.03;1.30;;;2.70;67.00;;;;;;5054329;28;20087;-37
2022/04/03 05:23:33;;;;;;;1.65;1.20;;;2.70;66.90;;;;;;5054482;28;20025;-38
2022/04/03 05:25:58;;;;;;;1.60;1.05;;;2.70;66.80;;;;;;5054316;28;20082;-37
2022/04/03 05:28:24;;;;;;;4.40;1.25;;;2.80;66.70;;;;;;5054279;28;20025;-38
2022/04/03 05:30:50;;;;;;;1.35;1.10;;;2.90;66.70;;;;;;5054433;28;20025;-38
2022/04/03 05:33:16;;;;;;;1.45;1.33;;;2.90;66.40;;;;;;5054160;28;20119;-37
2022/04/03 05:35:42;;;;;;;2.33;1.00;;;2.90;66.20;;;;;;5054168;28;20043;-38
2022/04/03 05:38:08;;;;;;;3.75;1.13;;;3.00;66.20;;;;;;5054103;28;20445;-38
2022/04/03 05:40:34;;;;;;;3.67;0.95;;;3.00;66.10;;;;;;5052691;28;20504;-38
2022/04/03 05:43:00;;;;;;;2.58;1.30;;;3.00;66.00;;;;;;5054092;28;20040;-38
2022/04/03 05:45:26;;;;;;;1.75;1.10;;;3.00;65.90;;;;;;5054037;28;20057;-38
2022/04/03 05:47:52;;;;;;;1.27;1.17;;;3.10;65.80;;;;;;5053893;28;20033;-43
2022/04/03 05:50:19;;;;;;;1.20;0.90;;;3.20;65.70;;;;;;5053826;28;20075;-38
2022/04/03 05:52:49;;;;;;;2.38;1.20;;;3.20;65.60;;;;;;5053796;28;20032;-38
2022/04/03 05:55:17;;;;;;;2.13;1.20;;;3.20;65.60;;;;;;5053712;28;20039;-38
2022/04/03 05:57:43;;;;;;;1.40;1.05;;;3.20;65.60;;;;;;5053710;28;20434;-37
2022/04/03 06:00:12;;;;;;;2.30;1.20;;;3.30;65.70;;;;;;5053397;28;20049;-38
2022/04/03 06:02:51;;;;;;;2.85;1.27;;;3.30;65.70;;;;;;5053807;28;20028;-38
2022/04/03 06:05:19;;;;;;;1.20;1.10;;;3.30;65.80;;;;;;5053486;28;20025;-38
2022/04/03 06:07:44;;;;;;;2.17;1.23;;;3.30;65.90;;;;;;5053784;28;20469;-38
2022/04/03 06:10:11;;;;;;;1.48;1.30;;;3.30;65.90;;;;;;5053573;28;20083;-37
2022/04/03 06:12:36;;;;;;;1.90;1.00;;;3.40;66.00;;;;;;5053356;28;20109;-38
2022/04/03 06:15:03;;;;;;;2.55;1.13;;;3.40;66.10;;;;;;5052151;28;20153;-38
2022/04/03 06:17:29;;;;;;;1.77;1.10;;;3.50;66.20;;;;;;5053595;28;20541;-37
2022/04/03 06:19:54;;;;;;;1.98;1.30;;;3.50;66.20;;;;;;5053243;28;20060;-38
2022/04/03 06:22:20;;;;;;;2.65;1.42;;;3.50;67.00;;;;;;5053235;28;20021;-38
2022/04/03 06:24:45;;;;;;;1.52;0.90;;;3.40;66.50;;;;;;5053167;28;20021;-38
2022/04/03 06:27:11;;;;;;;3.35;1.20;;;3.40;66.60;;;;;;5053228;28;20107;-38
2022/04/03 06:29:36;;;;;;;2.40;1.30;;;3.40;66.80;;;;;;5053159;28;20469;-38
2022/04/03 06:32:03;;;;;;;1.73;1.38;;;3.40;67.00;;;;;;5051681;28;20036;-38
2022/04/03 06:34:29;;;;;;;1.88;1.40;;;3.40;67.00;;;;;;5051702;28;20508;-37
2022/04/03 06:36:54;;;;;;;1.45;1.30;;;3.40;67.10;;;;;;5053038;28;20068;-38
2022/04/03 06:39:20;;;;;;;2.63;1.70;;;3.40;67.80;;;;;;5052924;28;20044;-38
2022/04/03 06:41:45;;;;;;;2.67;1.50;;;3.40;67.20;;;;;;5052831;28;20112;-39
2022/04/03 06:44:12;;;;;;;1.73;1.30;;;3.40;67.30;;;;;;5053091;28;20535;-38
2022/04/03 06:46:37;;;;;;;1.90;1.50;;;3.40;67.30;;;;;;5052844;28;20339;-38
2022/04/03 06:49:03;;;;;;;2.97;1.73;;;3.50;67.30;;;;;;5052926;28;20027;-37
2022/04/03 06:51:28;;;;;;;4.28;1.40;;;3.50;67.40;;;;;;5052832;28;20025;-42
2022/04/03 06:53:54;;;;;;;4.13;1.85;;;3.50;67.40;;;;;;5052783;28;20028;-38
2022/04/03 06:56:19;;;;;;;2.40;1.83;;;3.50;68.10;;;;;;5052501;28;20036;-38
2022/04/03 06:58:45;;;;;;;2.88;1.50;;;3.50;67.50;;;;;;5052562;28;20048;-38
2022/04/03 07:01:11;;;;;;;2.60;1.90;;;3.60;67.50;;;;;;5052647;28;20029;-38
2022/04/03 07:03:37;;;;;;;3.67;2.20;;;3.70;67.60;;;;;;5051203;28;20448;-38
2022/04/03 07:06:03;;;;;;;3.03;1.73;;;3.70;67.60;;;;;;5052871;28;20033;-39
2022/04/03 07:08:28;;;;;;;3.03;1.67;;;3.70;67.60;;;;;;5052478;28;20025;-37
2022/04/03 07:10:55;;;;;;;2.50;1.45;;;3.80;67.70;;;;;;5052473;28;20136;-38
2022/04/03 07:13:20;;;;;;;1.92;1.40;;;3.80;67.70;;;;;;5052593;28;20393;-38
2022/04/03 07:15:48;;;;;;;2.35;1.33;;;3.90;67.80;;;;;;5052739;28;20028;-38
2022/04/03 07:18:15;;;;;;;1.67;1.38;;;3.90;67.70;;;;;;5052791;28;20029;-38
2022/04/03 07:20:41;;;;;;;3.95;1.50;;;4.00;67.80;;;;;;5052367;28;20480;-38
2022/04/03 07:23:06;;;;;;;3.00;1.42;;;4.10;67.80;;;;;;5052444;28;20032;-38
2022/04/03 07:25:32;;;;;;;4.38;1.60;;;4.10;67.80;;;;;;5052401;28;20037;-38
2022/04/03 07:27:57;;;;;;;2.22;1.52;;;4.20;67.90;;;;;;5052681;28;20028;-38
2022/04/03 07:30:23;;;;;;;3.65;1.80;;;4.20;68.00;;;;;;5052596;28;20025;-39
2022/04/03 07:32:49;;;;;;;1.75;1.30;;;4.30;68.00;;;;;;5052368;28;20035;-40
2022/04/03 07:35:14;;;;;;;3.08;1.73;;;4.30;68.10;;;;;;5052536;28;20163;-40
2022/04/03 07:37:40;;;;;;;1.98;1.38;;;4.40;68.10;;;;;;5052449;28;20037;-40
2022/04/03 07:40:08;;;;;;;1.55;1.38;;;4.40;68.10;;;;;;5052443;28;20036;-40
2022/04/03 07:42:34;;;;;;;5.55;1.40;;;4.50;68.20;;;;;;5052527;28;20025;-40
2022/04/03 07:44:59;;;;;;;3.50;2.00;;;4.50;68.00;;;;;;5052823;28;20067;-38
2022/04/03 07:47:25;;;;;;;2.45;1.67;;;4.60;68.20;;;;;;5052403;28;20029;-39
2022/04/03 07:49:51;;;;;;;1.98;1.65;;;4.60;68.10;;;;;;5052385;28;20464;-41
2022/04/03 07:52:17;;;;;;;2.05;1.50;;;4.60;68.00;;;;;;5052544;28;20025;-40
2022/04/03 07:54:42;;;;;;;3.30;1.67;;;4.70;68.10;;;;;;5052286;28;20025;-41
2022/04/03 07:57:10;;;;;;;2.75;1.65;;;4.80;68.00;;;;;;5052267;28;20025;-40
2022/04/03 07:59:36;;;;;;;4.25;1.45;;;4.80;68.00;;;;;;5052106;28;20505;-40
2022/04/03 08:02:02;;;;;;;2.42;1.60;;;4.90;67.90;;;;;;5052125;28;20033;-40
2022/04/03 08:04:28;;;;;;;3.40;1.75;;;5.00;67.90;;;;;;5052405;28;20414;-40
2022/04/03 08:06:54;;;;;;;2.08;1.83;;;5.00;67.80;;;;;;5052941;28;20064;-38
2022/04/03 08:09:20;;;;;;;3.08;1.65;;;5.10;67.90;;;;;;5056093;28;20483;-40
2022/04/03 08:11:46;;;;;;;3.47;2.10;;;5.20;67.90;;;;;;5055763;28;20111;-40
2022/04/03 08:14:11;;;;;;;1.90;1.70;;;5.30;67.90;;;;;;5055621;28;20053;-40
2022/04/03 08:16:37;;;;;;;2.28;1.30;;;5.40;67.70;;;;;;5055666;28;20033;-39
2022/04/03 08:19:03;;;;;;;1.63;1.20;;;5.50;67.40;;;;;;5055800;28;20471;-39
2022/04/03 08:21:30;;;;;;;2.70;1.13;;;5.70;67.00;;;;;;5055714;28;20064;-38
2022/04/03 08:23:55;;;;;;;2.60;1.23;;;5.80;66.70;;;;;;5055679;28;20025;-38
2022/04/03 08:26:25;;;;;;;1.48;1.10;;;6.10;66.40;;;;;;5055676;28;20027;-40
2022/04/03 08:28:54;;;;;;;2.90;1.23;;;6.30;65.70;;;;;;5055472;28;20083;-40
2022/04/03 08:31:24;;;;;;;1.73;1.08;;;6.40;65.00;;;;;;5055432;28;20036;-44
2022/04/03 08:33:52;;;;;;;1.30;1.00;;;6.50;64.80;;;;;;5055565;28;20082;-40
2022/04/03 08:36:19;;;;;;;1.08;1.00;;;6.60;64.60;;;;;;5055343;28;20033;-41
2022/04/03 08:38:45;;;;;;;2.45;1.02;;;6.70;64.30;;;;;;5055282;28;20056;-39
2022/04/03 08:44:57;;;;;;;3.63;1.00;;;6.80;63.10;;;;;;5055653;28;20451;-40
2022/04/03 08:47:25;;;;;;;1.75;1.00;;;6.70;62.90;;;;;;5053848;28;20028;-40
2022/04/03 08:49:57;;;;;;;1.17;0.90;;;6.70;62.70;;;;;;5055170;28;20079;-39
2022/04/03 08:52:22;;;;;;;1.48;0.80;;;6.70;62.50;;;;;;5055228;28;20036;-41
2022/04/03 08:54:48;;;;;;;3.33;1.10;;;6.70;62.60;;;;;;5054855;28;20107;-39
2022/04/03 08:57:15;;;;;;;2.13;0.90;;;6.60;62.50;;;;;;5054803;28;20037;-39
2022/04/03 08:59:40;;;;;;;2.67;1.05;;;6.70;62.60;;;;;;5054650;28;20481;-39
2022/04/03 09:02:07;;;;;;;1.42;1.13;;;6.60;62.40;;;;;;5054764;28;20082;-39
2022/04/03 09:04:32;;;;;;;1.85;1.33;;;6.60;62.30;;;;;;5054764;28;20032;-40
2022/04/03 09:06:59;;;;;;;1.80;1.10;;;6.60;61.90;;;;;;5054699;28;20048;-38
2022/04/03 09:09:26;;;;;;;2.47;1.55;;;6.60;62.10;;;;;;5054818;28;20029;-39
2022/04/03 09:12:12;;;;;;;2.65;1.42;;;6.70;62.10;;;;;;5054901;28;20432;-39
2022/04/03 09:14:49;;;;;;;2.92;1.40;;;6.70;62.00;;;;;;5054872;28;20036;-39
2022/04/03 09:17:42;;;;;;;3.10;1.20;;;6.70;62.20;;;;;;5054341;28;20033;-39
2022/04/03 09:20:09;;;;;;;2.03;1.02;;;6.80;62.10;;;;;;5054552;28;20424;-40
2022/04/03 09:22:37;;;;;;;1.95;1.10;;;7.00;62.00;;;;;;5054590;28;20523;-41
2022/04/03 09:25:09;;;;;;;4.82;1.25;;;7.20;61.60;;;;;;5054695;28;20481;-39
2022/04/03 09:27:44;;;;;;;1.27;0.90;;;7.40;61.20;;;;;;5054636;28;20104;-39
2022/04/03 09:30:10;;;;;;;1.45;1.08;;;7.70;61.00;;;;;;5053094;28;20013;-39
2022/04/03 09:32:49;;;;;;;1.30;0.93;;;8.00;60.70;;;;;;5054158;28;20108;-40
2022/04/03 09:35:17;;;;;;;1.95;1.10;;;8.20;60.70;;;;;;5054247;28;20531;-39
2022/04/03 09:38:06;;;;;;;2.60;1.50;;;8.30;60.00;;;;;;5053206;28;20104;-39
2022/04/03 09:40:33;;;;;;;2.50;1.20;;;8.20;58.90;;;;;;5050798;28;20032;-40
2022/04/03 09:43:11;;;;;;;1.95;0.95;;;8.20;58.80;;;;;;5053877;28;20063;-38
2022/04/03 09:45:44;;;;;;;3.70;1.05;;;8.10;57.90;;;;;;5053829;28;20447;-39
2022/04/03 09:48:44;;;;;;;2.83;0.88;;;7.90;58.40;;;;;;5052481;28;20021;-39
2022/04/03 09:51:13;;;;;;;2.35;0.85;;;7.80;58.20;;;;;;5053904;28;20017;-40
2022/04/03 09:53:50;;;;;;;2.00;1.10;;;7.70;58.20;;;;;;5052312;28;20102;-39
2022/04/03 09:56:29;;;;;;;1.63;0.90;;;7.70;58.40;;;;;;5053761;28;20021;-40
2022/04/03 09:59:01;;;;;;;1.13;0.70;;;7.90;58.10;;;;;;5053791;28;20481;-39
2022/04/03 10:01:41;;;;;;;2.80;1.20;;;8.00;57.80;;;;;;5053687;28;20044;-40
2022/04/03 10:04:11;;;;;;;1.75;0.93;;;8.20;57.10;;;;;;5053804;28;20018;-40
2022/04/03 10:06:38;;;;;;;1.08;0.60;;;8.30;57.10;;;;;;5053550;28;20075;-42
2022/04/03 10:09:04;;;;;;;3.53;0.80;;;8.40;57.00;;;;;;5053493;28;20029;-39
2022/04/03 10:11:30;;;;;;;2.83;0.70;;;8.50;56.80;;;;;;5053561;28;20021;-39
2022/04/03 10:13:56;;;;;;;0.82;0.63;;;8.60;55.60;;;;;;5053507;28;20059;-39
2022/04/03 10:16:23;;;;;;;2.63;0.90;;;8.60;56.20;;;;;;5053378;28;20022;-40
2022/04/03 10:18:49;;;;;;;1.63;0.70;;;8.50;55.80;;;;;;5053341;28;20017;-39
2022/04/03 10:21:42;;;;;;;1.10;0.70;;;8.50;56.00;;;;;;5053370;28;20086;-39
2022/04/03 10:24:19;;;;;;;4.10;0.90;;;8.40;55.60;;;;;;5053253;28;20032;-39
2022/04/03 10:26:59;;;;;;;1.95;0.88;;;8.20;55.90;;;;;;5053151;28;20056;-39
2022/04/03 10:29:29;;;;;;;1.45;0.88;;;8.10;56.00;;;;;;5052615;28;20036;-39
2022/04/03 10:31:58;;;;;;;1.77;1.05;;;8.00;56.00;;;;;;5052937;28;20117;-40
2022/04/03 10:34:26;;;;;;;2.67;0.93;;;7.90;56.40;;;;;;5051909;28;20469;-39
2022/04/03 10:36:52;;;;;;;1.48;1.00;;;7.90;56.60;;;;;;5053139;28;20074;-40
2022/04/03 10:39:25;;;;;;;1.67;0.85;;;7.90;56.80;;;;;;5052991;28;20033;-39
2022/04/03 10:42:11;;;;;;;;;;;7.90;56.70;;;;;;5053336;28;20528;-39
2022/04/03 10:44:36;;;;;;;1.55;0.80;;;8.00;56.20;;;;;;5052851;28;19909;-40
2022/04/03 10:47:04;;;;;;;1.80;0.70;;;7.90;56.60;;;;;;5052745;28;20485;-39
2022/04/03 10:49:30;;;;;;;1.83;0.98;;;8.00;56.60;;;;;;5052773;28;20025;-40
2022/04/03 10:52:02;;;;;;;2.13;1.00;;;8.00;56.90;;;;;;5052762;28;20039;-39
2022/04/03 10:54:33;;;;;;;1.37;1.00;;;8.00;56.80;;;;;;5053054;28;20113;-39
2022/04/03 10:57:32;;;;;;;1.48;1.00;;;8.00;57.10;;;;;;5052675;28;20336;-38
2022/04/03 11:00:12;;;;;;;1.60;1.13;;;8.20;57.30;;;;;;5052677;28;20052;-39
2022/04/03 11:03:04;;;;;;;4.50;1.35;;;8.30;57.30;;;;;;5052646;28;20115;-40
2022/04/03 11:05:30;;;;;;;0.93;0.80;;;8.30;57.10;;;;;;5036786;28;20095;-39
2022/04/03 11:08:02;;;;;;;1.17;0.90;;;8.40;57.00;;;;;;5052525;28;20025;-39
2022/04/03 11:10:50;;;;;;;2.97;0.98;;;8.50;57.00;;;;;;5052557;28;20021;-40
2022/04/03 11:13:17;;;;;;;1.70;1.20;;;8.50;57.10;;;;;;5052898;28;20116;-39
2022/04/03 11:15:46;;;;;;;1.88;1.20;;;8.40;57.20;;;;;;5051144;28;20021;-39
2022/04/03 11:18:33;;;;;;;5.18;1.40;;;8.40;57.20;;;;;;5052607;28;20068;-40
2022/04/03 11:21:14;;;;;;;0.80;0.80;;;8.30;57.30;;;;;;5048865;28;20586;-39
2022/04/03 11:23:43;;;;;;;2.38;1.33;;;8.30;57.30;;;;;;5052300;28;20473;-40
2022/04/03 11:26:09;;;;;;;3.58;1.30;;;8.30;57.50;;;;;;5052248;28;20022;-40
2022/04/03 11:28:34;;;;;;;1.55;1.20;;;8.30;57.60;;;;;;5052368;28;20025;-39
2022/04/03 11:31:01;;;;;;;2.25;1.17;;;8.30;57.50;;;;;;5052308;28;20469;-39
2022/04/03 11:33:31;;;;;;;2.47;0.90;;;8.30;57.40;;;;;;5052126;28;20024;-40
2022/04/03 11:36:10;;;;;;;0.95;0.88;;;8.40;57.50;;;;;;5052071;28;20029;-39
2022/04/03 11:38:42;;;;;;;3.95;1.13;;;8.40;57.50;;;;;;5052161;28;20066;-39
2022/04/03 11:41:16;;;;;;;4.13;1.40;;;8.40;57.20;;;;;;5053051;28;20356;-40
2022/04/03 11:43:54;;;;;;;1.17;0.93;;;8.50;57.20;;;;;;5056014;28;20032;-39
2022/04/03 11:46:22;;;;;;;3.55;1.30;;;8.60;57.00;;;;;;5054848;28;20028;-39
2022/04/03 11:48:47;;;;;;;2.55;1.33;;;8.60;57.50;;;;;;5056136;28;20476;-38
2022/04/03 11:51:15;;;;;;;2.13;1.10;;;8.70;56.90;;;;;;5056041;28;20028;-40
2022/04/03 11:53:43;;;;;;;1.20;1.00;;;8.80;56.80;;;;;;5056120;28;20074;-39
2022/04/03 11:56:14;;;;;;;1.20;1.10;;;8.90;56.60;;;;;;5056293;28;20017;-40
2022/04/03 11:58:42;;;;;;;2.63;0.90;;;8.90;56.60;;;;;;5055984;28;20041;-42
2022/04/03 12:01:08;;;;;;;2.97;1.00;;;8.90;56.60;;;;;;5056022;28;20025;-40
2022/04/03 12:03:36;;;;;;;2.25;0.75;;;8.90;56.50;;;;;;5056214;28;20079;-39
2022/04/03 12:06:15;;;;;;;3.47;1.00;;;8.80;56.40;;;;;;5055882;28;20021;-40
2022/04/03 12:08:42;;;;;;;2.22;1.00;;;8.80;56.10;;;;;;5055940;28;20100;-41
2022/04/03 12:11:15;;;;;;;2.25;1.05;;;8.70;56.40;;;;;;5055897;28;20021;-41
2022/04/03 12:13:41;;;;;;;1.58;1.00;;;8.60;56.40;;;;;;5055860;28;20104;-40
2022/04/03 12:16:07;;;;;;;1.90;1.20;;;8.50;56.70;;;;;;5055803;28;20480;-40
2022/04/03 12:18:57;;;;;;;3.25;1.10;;;8.50;56.90;;;;;;5056011;28;20478;-41
2022/04/03 12:21:42;;;;;;;1.20;1.10;;;8.40;57.10;;;;;;5055879;28;20095;-41
2022/04/03 12:24:20;;;;;;;1.85;1.30;;;8.40;57.60;;;;;;5055693;28;20021;-49
2022/04/03 12:27:00;;;;;;;1.42;1.10;;;8.40;57.90;;;;;;5055410;28;20029;-41
2022/04/03 12:29:28;;;;;;;2.28;0.93;;;8.40;58.10;;;;;;5055623;28;20032;-41
2022/04/03 12:32:12;;;;;;;3.50;1.20;;;8.40;58.30;;;;;;5055538;28;20096;-39
2022/04/03 12:34:40;;;;;;;2.85;1.30;;;8.50;58.50;;;;;;5054117;28;20024;-40
2022/04/03 12:37:08;;;;;;;3.97;1.27;;;8.60;58.40;;;;;;5055679;28;20025;-40
2022/04/03 12:39:33;;;;;;;2.13;0.95;;;8.60;58.50;;;;;;5055484;28;20017;-40
2022/04/03 12:42:22;;;;;;;1.80;1.00;;;8.60;58.40;;;;;;5055164;28;20482;-40
2022/04/03 12:44:53;;;;;;;1.60;0.88;;;8.60;58.30;;;;;;5055360;28;20028;-40
2022/04/03 12:47:22;;;;;;;2.95;1.25;;;8.60;58.30;;;;;;5055508;28;20116;-40
2022/04/03 12:49:50;;;;;;;1.58;1.00;;;8.60;58.50;;;;;;5055161;28;20021;-41
2022/04/03 12:52:20;;;;;;;2.58;1.38;;;8.60;58.40;;;;;;5055068;28;20100;-40
2022/04/03 12:54:46;;;;;;;2.15;1.02;;;8.60;58.50;;;;;;5054814;28;20040;-41
2022/04/03 13:00:15;;;;;;;1.83;1.40;;;8.80;58.60;;;;;;5054881;28;20063;-40
2022/04/03 13:02:46;;;;;;;1.75;1.13;;;8.80;58.60;;;;;;5054860;28;20053;-40
2022/04/03 13:05:14;;;;;;;1.33;0.93;;;8.70;58.70;;;;;;5055220;28;20017;-41
2022/04/03 13:07:40;;;;;;;1.10;1.00;;;8.70;58.90;;;;;;5055155;28;20025;-40
2022/04/03 13:10:06;;;;;;;1.42;1.00;;;8.60;58.70;;;;;;5054885;28;20017;-41